createdAt,value
2023-02-21T07:47:15.059Z,67.59
2023-02-21T07:49:42.470Z,67.35
2023-02-21T07:52:09.764Z,67.82
2023-02-21T07:54:37.075Z,67.10
2023-02-21T07:57:04.954Z,66.78
2023-02-21T07:59:32.423Z,66.16
2023-02-21T08:01:59.783Z,65.92
2023-02-21T08:04:27.163Z,65.82
2023-02-21T08:07:01.596Z,65.79
2023-02-21T08:09:28.906Z,65.55
2023-02-21T08:11:56.199Z,65.39
2023-02-21T08:14:23.543Z,64.74
2023-02-21T08:16:50.994Z,64.54
2023-02-21T08:19:18.343Z,64.78
2023-02-21T08:21:50.090Z,64.55
2023-02-21T08:24:19.164Z,63.91
2023-02-21T08:26:46.938Z,64.13
2023-02-21T08:29:18.028Z,63.48
2023-02-21T08:31:45.554Z,62.99
2023-02-21T08:34:14.259Z,62.74
2023-02-21T08:36:44.098Z,62.66
2023-02-21T08:39:12.126Z,62.28
2023-02-21T08:41:45.040Z,62.30
2023-02-21T08:44:16.896Z,61.70
2023-02-21T08:46:45.194Z,61.23
2023-02-21T08:49:12.486Z,61.19
2023-02-21T08:51:40.332Z,60.38
2023-02-21T08:54:08.438Z,60.25
2023-02-21T08:56:35.823Z,59.56
2023-02-21T08:59:04.539Z,59.48
2023-02-21T09:01:36.151Z,59.07
2023-02-21T09:04:06.641Z,58.50
2023-02-21T09:06:34.097Z,58.67
2023-02-21T09:09:01.415Z,58.75
2023-02-21T09:11:29.414Z,57.77
2023-02-21T09:13:56.714Z,57.20
2023-02-21T09:16:24.159Z,56.61
2023-02-21T09:19:01.335Z,56.01
2023-02-21T09:21:29.220Z,55.65
2023-02-21T09:23:59.271Z,55.16
2023-02-21T09:26:27.112Z,54.55
2023-02-21T09:28:54.473Z,54.60
2023-02-21T09:31:22.178Z,54.01
2023-02-21T09:33:49.478Z,53.18
2023-02-21T09:36:17.169Z,52.68
2023-02-21T09:38:44.501Z,52.03
2023-02-21T09:41:14.639Z,51.62
2023-02-21T09:43:48.545Z,50.88
2023-02-21T09:46:50.687Z,50.52
2023-02-21T09:49:42.049Z,49.50
2023-02-21T09:52:41.213Z,49.43
2023-02-21T09:55:39.713Z,49.04
2023-02-21T09:58:19.934Z,48.58
2023-02-21T10:00:47.614Z,48.26
2023-02-21T10:03:49.325Z,47.67
2023-02-21T10:06:53.098Z,47.19
2023-02-21T10:10:02.243Z,46.22
2023-02-21T10:13:18.685Z,45.83
2023-02-21T10:16:15.943Z,45.25
2023-02-21T10:19:13.215Z,45.35
2023-02-21T10:21:49.499Z,44.31
2023-02-21T10:24:25.722Z,43.95
2023-02-21T10:27:17.011Z,43.00
2023-02-21T10:30:19.166Z,42.51
2023-02-21T10:32:46.586Z,42.50
2023-02-21T10:35:14.071Z,42.54
2023-02-21T10:38:07.806Z,42.40
2023-02-21T10:40:59.524Z,41.21
2023-02-21T10:43:35.686Z,41.43
2023-02-21T10:46:30.824Z,41.63
2023-02-21T10:49:28.944Z,40.67
2023-02-21T10:52:48.750Z,40.52
2023-02-21T10:55:32.623Z,39.70
2023-02-21T10:58:18.759Z,39.76
2023-02-21T11:00:48.290Z,40.29
2023-02-21T11:03:27.511Z,37.85
2023-02-21T11:05:58.130Z,39.03
2023-02-21T11:08:42.389Z,38.58
2023-02-21T11:11:11.717Z,38.34
2023-02-21T11:13:39.246Z,38.97
2023-02-21T11:16:24.682Z,35.98
2023-02-21T11:19:07.927Z,35.92
2023-02-21T11:21:35.279Z,36.25
2023-02-21T11:24:08.143Z,35.83
2023-02-21T11:26:52.021Z,35.38
2023-02-21T11:29:25.890Z,35.02
2023-02-21T11:31:56.912Z,35.51
2023-02-21T11:34:30.168Z,34.01
2023-02-21T11:37:04.610Z,34.42
2023-02-21T11:39:34.589Z,33.09
2023-02-21T11:42:32.944Z,31.89
2023-02-21T11:45:29.609Z,31.25
2023-02-21T11:48:15.852Z,31.71
2023-02-21T11:50:53.482Z,31.72
2023-02-21T11:53:42.394Z,32.55
2023-02-21T11:57:14.415Z,31.32
2023-02-21T12:00:47.114Z,31.16
2023-02-21T12:04:15.361Z,30.07
2023-02-21T12:07:30.337Z,28.03
2023-02-21T12:10:41.429Z,28.92
2023-02-21T12:14:04.210Z,28.19
2023-02-21T12:16:56.327Z,28.18
2023-02-21T12:20:15.369Z,27.50
2023-02-21T12:23:55.556Z,26.42
2023-02-21T12:27:46.513Z,26.78
2023-02-21T12:31:11.956Z,27.05
2023-02-21T12:34:22.736Z,26.45
2023-02-21T12:37:33.494Z,27.39
2023-02-21T12:40:48.568Z,26.42
2023-02-21T12:44:08.156Z,24.99
2023-02-21T12:47:06.648Z,25.95
2023-02-21T12:50:21.758Z,24.43
2023-02-21T12:53:18.027Z,24.52
2023-02-21T12:56:19.331Z,24.20
2023-02-21T12:59:35.103Z,23.97
2023-02-21T13:02:50.753Z,25.36
2023-02-21T13:05:33.927Z,24.64
2023-02-21T13:09:06.649Z,24.50
2023-02-21T13:12:21.382Z,24.19
2023-02-21T13:15:13.363Z,24.64
2023-02-21T13:17:42.673Z,24.73
2023-02-21T13:20:22.251Z,24.33
2023-02-21T13:23:03.187Z,24.77
2023-02-21T13:26:04.312Z,25.58
2023-02-21T13:28:36.704Z,25.17
2023-02-21T13:31:17.753Z,24.83
2023-02-21T13:33:53.101Z,24.23
2023-02-21T13:37:06.086Z,24.69
2023-02-21T13:39:38.781Z,24.43
2023-02-21T13:42:19.500Z,24.78
2023-02-21T13:45:16.031Z,24.90
2023-02-21T13:47:59.914Z,26.09
2023-02-21T13:50:39.522Z,25.15
2023-02-21T13:53:24.572Z,23.76
2023-02-21T13:56:06.423Z,25.26
2023-02-21T13:58:49.240Z,25.04
2023-02-21T14:01:43.645Z,24.68
2023-02-21T14:04:57.652Z,25.72
2023-02-21T14:07:59.016Z,24.78
2023-02-21T14:10:55.354Z,25.48
2023-02-21T14:13:58.909Z,26.30
2023-02-21T14:16:59.127Z,27.45
2023-02-21T14:19:48.830Z,26.98
2023-02-21T14:22:32.184Z,27.98
2023-02-21T14:25:24.773Z,27.64
2023-02-21T14:27:53.915Z,28.29
2023-02-21T14:30:33.779Z,27.99
2023-02-21T14:33:26.975Z,28.88
2023-02-21T14:36:08.254Z,29.00
2023-02-21T14:38:44.409Z,29.61
2023-02-21T14:41:20.888Z,29.84
2023-02-21T14:44:25.677Z,29.19
2023-02-21T14:47:52.096Z,29.77
2023-02-21T14:51:06.649Z,28.99
2023-02-21T14:54:25.960Z,29.16
2023-02-21T14:57:48.989Z,28.96
2023-02-21T15:00:19.163Z,29.42
2023-02-21T15:03:07.297Z,29.56
2023-02-21T15:06:18.332Z,29.34
2023-02-21T15:08:50.672Z,29.78
2023-02-21T15:11:39.892Z,30.43
2023-02-21T15:14:29.416Z,30.09
2023-02-21T15:17:13.153Z,30.09
2023-02-21T15:19:40.546Z,30.90
2023-02-21T15:22:27.999Z,30.44
2023-02-21T15:25:10.856Z,30.19
2023-02-21T15:27:57.561Z,30.69
2023-02-21T15:30:41.903Z,30.90
2023-02-21T15:33:21.333Z,31.64
2023-02-21T15:36:02.165Z,30.87
2023-02-21T15:39:14.192Z,30.79
2023-02-21T15:41:50.215Z,30.70
2023-02-21T15:44:37.570Z,30.81
2023-02-21T15:47:26.759Z,30.67
2023-02-21T15:50:29.366Z,30.22
2023-02-21T15:52:56.771Z,29.84
2023-02-21T15:55:31.123Z,30.00
2023-02-21T15:58:26.957Z,29.58
2023-02-21T16:01:11.306Z,29.50
2023-02-21T16:03:43.529Z,29.80
2023-02-21T16:06:32.309Z,28.40
2023-02-21T16:09:34.843Z,29.26
2023-02-21T16:12:38.210Z,29.42
2023-02-21T16:15:19.025Z,28.97
2023-02-21T16:18:01.537Z,29.36
2023-02-21T16:20:40.456Z,29.28
2023-02-21T16:23:33.986Z,29.61
2023-02-21T16:26:09.837Z,29.03
2023-02-21T16:28:40.957Z,29.43
2023-02-21T16:31:26.647Z,29.42
2023-02-21T16:33:54.018Z,29.32
2023-02-21T16:36:30.554Z,29.72
2023-02-21T16:38:59.458Z,29.78
2023-02-21T16:41:27.342Z,29.98
2023-02-21T16:43:54.656Z,30.40
2023-02-21T16:46:30.198Z,30.64
2023-02-21T16:48:59.011Z,31.60
2023-02-21T16:51:33.600Z,31.95
2023-02-21T16:54:02.479Z,31.61
2023-02-21T16:56:30.000Z,31.68
2023-02-21T16:58:57.620Z,31.65
2023-02-21T17:01:32.366Z,31.16
2023-02-21T17:04:01.596Z,31.56
2023-02-21T17:06:29.511Z,32.06
2023-02-21T17:08:58.799Z,32.37
2023-02-21T17:11:27.425Z,32.35
2023-02-21T17:13:54.722Z,32.86
2023-02-21T17:16:22.161Z,33.12
2023-02-21T17:18:49.530Z,33.73
2023-02-21T17:21:17.140Z,34.13
2023-02-21T17:23:44.717Z,34.90
2023-02-21T17:26:13.107Z,35.59
2023-02-21T17:28:40.521Z,36.10
2023-02-21T17:31:07.893Z,36.11
2023-02-21T17:33:35.684Z,37.05
2023-02-21T17:36:03.195Z,37.40
2023-02-21T17:38:30.504Z,37.55
2023-02-21T17:40:58.265Z,37.58
2023-02-21T17:43:25.588Z,38.33
2023-02-21T17:45:52.927Z,38.56
2023-02-21T17:48:20.264Z,38.78
2023-02-21T17:50:47.597Z,38.52
2023-02-21T17:53:14.938Z,38.91
2023-02-21T17:55:43.124Z,39.43
2023-02-21T17:58:10.553Z,39.14
2023-02-21T18:00:39.251Z,40.75
2023-02-21T18:03:07.579Z,41.32
2023-02-21T18:05:37.423Z,41.62
2023-02-21T18:08:05.641Z,41.68
2023-02-21T18:10:32.966Z,41.87
2023-02-21T18:13:00.241Z,42.46
2023-02-21T18:15:28.945Z,42.88
2023-02-21T18:18:03.915Z,43.30
2023-02-21T18:20:32.089Z,42.59
2023-02-21T18:22:59.597Z,43.38
2023-02-21T18:25:27.337Z,43.19
2023-02-21T18:27:55.120Z,42.87
2023-02-21T18:30:23.279Z,43.50
2023-02-21T18:32:51.063Z,43.67
2023-02-21T18:35:18.745Z,44.74
2023-02-21T18:37:47.246Z,44.67
2023-02-21T18:40:18.534Z,45.21
2023-02-21T18:42:47.754Z,44.81
2023-02-21T18:45:15.144Z,46.06
2023-02-21T18:47:42.470Z,46.10
2023-02-21T18:50:10.300Z,46.80
2023-02-21T18:52:37.579Z,46.23
2023-02-21T18:55:06.113Z,46.59
2023-02-21T18:57:34.250Z,46.20
2023-02-21T19:00:01.613Z,46.76
2023-02-21T19:02:29.101Z,47.05
2023-02-21T19:04:56.418Z,48.18
2023-02-21T19:07:24.302Z,47.77
2023-02-21T19:09:51.645Z,48.66
2023-02-21T19:12:19.335Z,48.26
2023-02-21T19:14:46.661Z,48.56
2023-02-21T19:17:13.997Z,48.60
2023-02-21T19:19:41.441Z,49.44
2023-02-21T19:22:08.894Z,50.54
2023-02-21T19:24:36.294Z,49.92
2023-02-21T19:27:04.024Z,50.05
2023-02-21T19:29:31.354Z,49.52
2023-02-21T19:31:58.811Z,51.11
2023-02-21T19:34:26.307Z,50.91
2023-02-21T19:36:53.710Z,50.30
2023-02-21T19:39:21.046Z,50.19
2023-02-21T19:41:48.503Z,48.42
2023-02-21T19:44:16.074Z,49.26
2023-02-21T19:46:43.648Z,50.30
2023-02-21T19:49:18.094Z,50.92
2023-02-21T19:51:50.397Z,50.52
2023-02-21T19:54:25.125Z,51.40
2023-02-21T19:56:52.515Z,51.01
2023-02-21T19:59:19.813Z,50.96
2023-02-21T20:01:47.188Z,50.18
2023-02-21T20:04:16.873Z,50.06
2023-02-21T20:06:46.192Z,49.15
2023-02-21T20:09:13.952Z,49.07
2023-02-21T20:11:41.363Z,47.92
2023-02-21T20:14:11.277Z,47.50
2023-02-21T20:16:43.920Z,47.77
2023-02-21T20:19:13.654Z,47.64
2023-02-21T20:21:41.434Z,47.61
2023-02-21T20:24:10.253Z,47.28
2023-02-21T20:26:38.902Z,48.01
2023-02-21T20:29:07.032Z,47.77
2023-02-21T20:31:37.380Z,48.56
2023-02-21T20:34:06.844Z,47.86
2023-02-21T20:36:39.231Z,48.53
2023-02-21T20:39:19.772Z,47.62
2023-02-21T20:41:47.347Z,47.80
2023-02-21T20:44:15.361Z,48.04
2023-02-21T20:46:42.730Z,47.98
2023-02-21T20:49:14.170Z,47.68
2023-02-21T20:51:44.068Z,47.70
2023-02-21T20:54:20.155Z,48.61
2023-02-21T20:56:56.779Z,48.48
2023-02-21T20:59:38.881Z,48.59
2023-02-21T21:02:08.294Z,48.56
2023-02-21T21:04:43.292Z,48.66
2023-02-21T21:07:22.362Z,48.96
2023-02-21T21:09:50.868Z,48.71
2023-02-21T21:12:23.502Z,49.76
2023-02-21T21:14:55.521Z,48.82
2023-02-21T21:17:22.899Z,49.95
2023-02-21T21:19:51.047Z,51.96
2023-02-21T21:22:27.207Z,51.83
2023-02-21T21:24:55.530Z,52.85
2023-02-21T21:27:23.900Z,52.99
2023-02-21T21:29:53.724Z,52.91
2023-02-21T21:32:24.590Z,54.35
2023-02-21T21:34:56.753Z,53.46
2023-02-21T21:37:29.307Z,53.64
2023-02-21T21:39:57.259Z,53.71
2023-02-21T21:42:29.233Z,53.43
2023-02-21T21:44:57.659Z,53.14
2023-02-21T21:47:32.108Z,53.04
2023-02-21T21:50:02.356Z,53.77
2023-02-21T21:52:29.946Z,53.94
2023-02-21T21:54:58.247Z,53.32
2023-02-21T21:57:28.447Z,53.63
2023-02-21T21:59:56.162Z,53.50
2023-02-21T22:02:23.517Z,53.93
2023-02-21T22:04:53.352Z,54.38
2023-02-21T22:07:20.889Z,54.50
2023-02-21T22:09:48.153Z,54.69
2023-02-21T22:12:20.963Z,54.55
2023-02-21T22:14:49.953Z,55.24
2023-02-21T22:17:17.320Z,55.85
2023-02-21T22:19:45.358Z,55.65
2023-02-21T22:22:13.681Z,55.04
2023-02-21T22:24:40.997Z,55.08
2023-02-21T22:27:08.307Z,55.13
2023-02-21T22:29:35.929Z,54.97
2023-02-21T22:32:03.291Z,54.38
2023-02-21T22:34:30.623Z,55.00
2023-02-21T22:36:58.573Z,54.33
2023-02-21T22:39:27.132Z,56.16
2023-02-21T22:41:54.794Z,54.75
2023-02-21T22:44:25.031Z,53.94
2023-02-21T22:46:59.753Z,54.09
2023-02-21T22:49:28.780Z,54.66
2023-02-21T22:51:57.654Z,54.01
2023-02-21T22:54:26.751Z,54.06
2023-02-21T22:56:59.768Z,55.29
2023-02-21T22:59:27.237Z,55.49
2023-02-21T23:01:58.309Z,55.09
2023-02-21T23:04:26.352Z,54.10
2023-02-21T23:06:58.251Z,54.59
2023-02-21T23:09:30.157Z,54.03
2023-02-21T23:12:00.571Z,54.22
2023-02-21T23:14:34.954Z,54.44
2023-02-21T23:17:03.329Z,55.25
2023-02-21T23:19:32.167Z,55.58
2023-02-21T23:22:00.032Z,55.42
2023-02-21T23:24:28.303Z,56.23
2023-02-21T23:26:55.757Z,55.89
2023-02-21T23:29:26.161Z,56.00
2023-02-21T23:32:09.267Z,55.45
2023-02-21T23:34:40.649Z,55.01
2023-02-21T23:37:12.420Z,55.07
2023-02-21T23:39:41.877Z,55.94
2023-02-21T23:42:11.007Z,55.42
2023-02-21T23:44:40.021Z,55.39
2023-02-21T23:47:07.420Z,55.46
2023-02-21T23:49:34.753Z,55.08
2023-02-21T23:52:02.172Z,55.61
2023-02-21T23:54:29.642Z,55.32
2023-02-21T23:57:00.659Z,55.83
2023-02-21T23:59:28.809Z,55.46
